Lake George, Colorado
Current Conditions -  °F | °C
As of 6:16 PM on Monday 26 Jan 2015 (Local Time) from K4BM Reporting Station
Clear Clear  
Wind Chill: 34°   Ceiling: Unl
Heat Index: 37°   Visibility: 10mi
Dew Point: 10°   Wind: 5mph
Humidity: 33%   Direction: 230°SW
Pressure: 30.55"   Gusts: NA
Location:  38.98°N, 105.35°W
Report Text: K4BM 270116Z AUTO 23004KT 10SM CLR 03/M12 A3055 RMK AO2
Loading
Personal Weather Stations






























Interactive Weather Map New forecast layout! Learn more

10-Day Weather Forecast

Advertisements
Track Severe Weather on mobile